Airfield :
LOGIN :

Register | Disclaimer

   EN    FR    IT 

 










Legend :    VFR   Marginal VFR   IFR   Intensive IFR   Very Intensive IFR
Visi :
Ceiling :
>= 8 km
>= 3000ft
5 to 8 km
1000 to 3000 ft
1500m to 5 km
500 to 1000 ft
800 to 1500m
200 to 500 ft
< 800m
< 200 ft
Symbols :   Thunderstorms  Fog  Heavy snow  Heavy precipitations  Wind > 20 kt
SIGMETs :     Misc.  Thunderstorms  Icing  Turbulence  Mountain Waves  Volcanic Ashes






- Airport Elevation : 36 ft
- IATA code : LTQ


LFAT - Le Touquet

CURRENT METAR :
  • 261100Z AUTO 31004KT 250V350 9999 OVC020 05/01 Q1035 NOSIG

EXPIRED METARs :
  • 261030Z AUTO 30006KT 270V330 9999 OVC020 05/01 Q1034 NOSIG
  • 261000Z AUTO 31007KT 9999 OVC020 05/00 Q1035 NOSIG
  • 260930Z AUTO VRB01KT 9999 OVC020 04/00 Q1035 NOSIG
  • 260900Z AUTO VRB03KT 9999 OVC018 04/01 Q1035 NOSIG
  • 260830Z AUTO 34010KT 9999 OVC016 04/00 Q1035 NOSIG

TAF TAF LFAT
Valid from the 26 at 09:00 until the 26 at 18:00 UTC


260800Z 2609/2618 30007KT 9999 OVC017
ATIS : +33 3 21 06 62 84



MET'MAP, your aeronautical weather chart ! - Copyright ORBIFLY December 2007 - Disclaimer

ORBIFLY MET'MAP TEAM :

Programming & Development : Alexandra Zaïnal
Original concept : Baudouin d'Aumeries
Technical & hardware support : Manuel Goepfert
Assistance : Marc-Olivier Méhu

Contact : metmap@orbifly.com




SOURCES & CREDITS :

   NOAA